TimeCDT,TemperatureF,Dew PointF,Humidity,Sea Level PressureIn,VisibilityMPH,Wind Direction,Wind SpeedMPH,Gust SpeedMPH,PrecipitationIn,Events,Conditions,WindDirDegrees,DateUTC
12:53 AM,68.0,60.1,76,29.89,10.0,SE,11.5,-,N/A,,Clear,130,2013-09-27 05:53:00
1:53 AM,69.1,59.0,70,29.89,10.0,SE,12.7,-,N/A,,Clear,130,2013-09-27 06:53:00
2:53 AM,68.0,59.0,73,29.89,10.0,SE,9.2,-,N/A,,Clear,130,2013-09-27 07:53:00
3:53 AM,68.0,60.1,76,29.88,10.0,SE,10.4,-,N/A,,Clear,130,2013-09-27 08:53:00
4:53 AM,68.0,60.1,76,29.88,10.0,SE,10.4,-,N/A,,Clear,140,2013-09-27 09:53:00
5:53 AM,69.1,60.1,73,29.88,10.0,SE,9.2,-,N/A,,Clear,140,2013-09-27 10:53:00
6:53 AM,66.0,59.0,78,29.90,10.0,SE,11.5,-,N/A,,Clear,130,2013-09-27 11:53:00
7:53 AM,66.9,59.0,76,29.89,9.0,SE,10.4,-,N/A,,Mostly Cloudy,140,2013-09-27 12:53:00
8:53 AM,68.0,60.1,76,29.90,10.0,SE,10.4,-,N/A,,Mostly Cloudy,130,2013-09-27 13:53:00
9:53 AM,70.0,60.1,71,29.89,10.0,SE,8.1,-,N/A,,Mostly Cloudy,130,2013-09-27 14:53:00
10:53 AM,73.9,61.0,64,29.88,10.0,SSE,11.5,-,N/A,,Partly Cloudy,150,2013-09-27 15:53:00
11:53 AM,73.9,61.0,64,29.88,10.0,SSE,11.5,-,0.00,,Mostly Cloudy,150,2013-09-27 16:53:00
12:53 PM,75.0,62.1,64,29.83,10.0,ESE,9.2,-,N/A,,Mostly Cloudy,120,2013-09-27 17:53:00
1:53 PM,82.9,63.0,51,29.81,10.0,SSE,21.9,26.5,0.00,,Clear,150,2013-09-27 18:53:00
2:53 PM,84.9,61.0,44,29.79,10.0,SSE,25.3,33.4,N/A,,Clear,150,2013-09-27 19:53:00
3:53 PM,86.0,61.0,43,29.79,10.0,South,16.1,26.5,N/A,,Clear,170,2013-09-27 20:53:00
4:53 PM,84.0,62.1,47,29.79,10.0,SSE,19.6,28.8,N/A,,Clear,160,2013-09-27 21:53:00
5:53 PM,82.9,60.1,46,29.80,10.0,SSE,17.3,24.2,N/A,,Clear,160,2013-09-27 22:53:00
6:53 PM,81.0,59.0,47,29.81,10.0,SSE,18.4,24.2,N/A,,Clear,150,2013-09-27 23:53:00
7:53 PM,79.0,61.0,54,29.81,10.0,SE,11.5,20.7,N/A,,Clear,140,2013-09-28 00:53:00
8:53 PM,78.1,61.0,56,29.81,10.0,SE,12.7,20.7,N/A,,Clear,140,2013-09-28 01:53:00
9:53 PM,77.0,60.1,56,29.81,10.0,SSE,13.8,25.3,N/A,,Clear,150,2013-09-28 02:53:00
10:53 PM,75.0,59.0,57,29.82,10.0,SSE,12.7,20.7,N/A,,Scattered Clouds,150,2013-09-28 03:53:00
11:53 PM,73.0,59.0,61,29.80,10.0,SE,13.8,-,N/A,,Clear,140,2013-09-28 04:53:00